createdAt,value
2018-11-06T00:01:36.004Z,24.68
2018-11-06T00:04:08.349Z,24.68
2018-11-06T00:06:40.578Z,24.64
2018-11-06T00:09:12.971Z,24.63
2018-11-06T00:11:45.133Z,24.62
2018-11-06T00:14:17.443Z,24.61
2018-11-06T00:16:49.468Z,24.62
2018-11-06T00:19:21.458Z,24.60
2018-11-06T00:21:54.283Z,24.60
2018-11-06T00:24:26.349Z,24.55
2018-11-06T00:26:58.404Z,24.39
2018-11-06T00:29:30.382Z,24.43
2018-11-06T00:32:02.927Z,24.51
2018-11-06T00:34:35.162Z,24.47
2018-11-06T00:37:07.505Z,24.37
2018-11-06T00:39:39.848Z,24.50
2018-11-06T00:42:12.041Z,24.37
2018-11-06T00:44:44.354Z,24.28
2018-11-06T00:47:16.610Z,24.34
2018-11-06T00:49:48.634Z,24.41
2018-11-06T00:52:21.279Z,24.50
2018-11-06T00:54:53.514Z,24.51
2018-11-06T00:57:25.468Z,24.49
2018-11-06T00:59:58.154Z,24.51
2018-11-06T01:02:30.407Z,24.43
2018-11-06T01:05:02.631Z,24.20
2018-11-06T01:07:34.908Z,24.28
2018-11-06T01:10:07.580Z,24.42
2018-11-06T01:12:40.145Z,24.44
2018-11-06T01:15:13.924Z,24.37
2018-11-06T01:17:46.590Z,24.44
2018-11-06T01:20:19.745Z,24.41
2018-11-06T01:22:52.470Z,24.42
2018-11-06T01:25:24.640Z,24.26
2018-11-06T01:27:56.760Z,24.26
2018-11-06T01:30:28.905Z,24.38
2018-11-06T01:33:02.459Z,24.41
2018-11-06T01:35:35.033Z,24.42
2018-11-06T01:38:07.512Z,24.48
2018-11-06T01:40:39.588Z,24.47
2018-11-06T01:43:11.707Z,24.43
2018-11-06T01:45:43.654Z,24.45
2018-11-06T01:48:15.528Z,24.47
2018-11-06T01:50:47.818Z,24.40
2018-11-06T01:53:20.342Z,24.44
2018-11-06T01:55:52.550Z,24.41
2018-11-06T01:58:24.761Z,24.38
2018-11-06T02:00:57.029Z,24.39
2018-11-06T02:03:29.137Z,24.43
2018-11-06T02:06:01.421Z,24.43
2018-11-06T02:08:33.264Z,24.31
2018-11-06T02:11:05.687Z,24.41
2018-11-06T02:13:37.842Z,24.45
2018-11-06T02:16:10.133Z,24.42
2018-11-06T02:18:42.594Z,24.37
2018-11-06T02:21:14.798Z,24.36
2018-11-06T02:23:47.213Z,24.43
2018-11-06T02:26:19.620Z,24.48
2018-11-06T02:28:51.748Z,24.36
2018-11-06T02:31:23.670Z,24.40
2018-11-06T02:33:56.157Z,24.23
2018-11-06T02:36:28.362Z,24.28
2018-11-06T02:39:00.483Z,24.35
2018-11-06T02:41:32.637Z,24.37
2018-11-06T02:44:04.520Z,24.37
2018-11-06T02:46:36.721Z,24.27
2018-11-06T02:49:08.727Z,24.26
2018-11-06T02:51:40.955Z,24.33
2018-11-06T02:54:13.632Z,24.28
2018-11-06T02:56:45.756Z,24.30
2018-11-06T02:59:17.812Z,24.35
2018-11-06T03:01:50.051Z,24.39
2018-11-06T03:04:21.933Z,24.37
2018-11-06T03:06:54.053Z,24.30
2018-11-06T03:09:26.413Z,24.27
2018-11-06T03:11:58.661Z,24.24
2018-11-06T03:14:30.722Z,24.32
2018-11-06T03:17:03.051Z,24.35
2018-11-06T03:19:35.239Z,24.28
2018-11-06T03:22:07.306Z,24.30
2018-11-06T03:24:39.786Z,24.30
2018-11-06T03:27:11.883Z,24.32
2018-11-06T03:29:45.241Z,24.31
2018-11-06T03:32:17.296Z,24.35
2018-11-06T03:34:49.395Z,24.33
2018-11-06T03:37:21.379Z,24.36
2018-11-06T03:39:53.460Z,24.38
2018-11-06T03:42:25.389Z,24.36
2018-11-06T03:44:57.578Z,24.35
2018-11-06T03:47:29.585Z,24.41
2018-11-06T03:50:02.144Z,24.35
2018-11-06T03:52:34.379Z,24.38
2018-11-06T03:55:06.957Z,24.40
2018-11-06T03:57:39.329Z,24.44
2018-11-06T04:00:15.942Z,24.46
2018-11-06T04:02:48.103Z,24.45
2018-11-06T04:05:20.330Z,24.42
2018-11-06T04:07:52.734Z,24.49
2018-11-06T04:10:24.710Z,24.50
2018-11-06T04:12:56.968Z,24.51
2018-11-06T04:15:28.849Z,24.51
2018-11-06T04:18:00.994Z,24.51
2018-11-06T04:20:33.116Z,24.50
2018-11-06T04:23:04.883Z,24.51
2018-11-06T04:25:37.549Z,24.51
2018-11-06T04:28:09.575Z,24.53
2018-11-06T04:30:42.007Z,24.57
2018-11-06T04:33:13.940Z,24.61
2018-11-06T04:35:46.195Z,24.58
2018-11-06T04:38:18.281Z,24.43
2018-11-06T04:40:50.302Z,24.28
2018-11-06T04:43:22.017Z,24.26
2018-11-06T04:45:53.875Z,24.36
2018-11-06T04:48:26.020Z,24.44
2018-11-06T04:50:58.083Z,24.49
2018-11-06T04:53:30.673Z,24.50
2018-11-06T04:56:03.526Z,24.53
2018-11-06T04:58:35.684Z,24.53
2018-11-06T05:03:47.969Z,24.55
2018-11-06T05:06:20.233Z,24.55
2018-11-06T05:08:52.348Z,24.54
2018-11-06T05:11:24.745Z,24.54
2018-11-06T05:13:57.083Z,24.52
2018-11-06T05:16:29.058Z,24.58
2018-11-06T05:19:01.366Z,24.80
2018-11-06T05:21:33.454Z,24.92
2018-11-06T05:24:05.773Z,24.95
2018-11-06T05:26:38.283Z,24.98
2018-11-06T05:29:10.347Z,25.05
2018-11-06T05:31:42.058Z,24.83
2018-11-06T05:34:14.561Z,24.76
2018-11-06T05:36:46.976Z,24.71
2018-11-06T05:39:19.124Z,24.75
2018-11-06T05:41:51.384Z,24.75
2018-11-06T05:44:23.445Z,24.77
2018-11-06T05:46:55.360Z,24.75
2018-11-06T05:49:27.608Z,24.75
2018-11-06T05:51:59.568Z,24.75
2018-11-06T05:54:31.464Z,24.79
2018-11-06T05:57:04.035Z,24.83
2018-11-06T05:59:36.295Z,24.79
2018-11-06T06:02:08.476Z,24.83
2018-11-06T06:04:40.935Z,24.83
2018-11-06T06:07:13.250Z,24.84
2018-11-06T06:09:45.651Z,24.92
2018-11-06T06:12:17.711Z,24.92
2018-11-06T06:14:50.021Z,24.82
2018-11-06T06:17:23.890Z,24.89
2018-11-06T06:19:58.316Z,24.92
2018-11-06T06:22:31.339Z,24.97
2018-11-06T06:25:04.176Z,24.90
2018-11-06T06:27:36.679Z,24.90
2018-11-06T06:30:11.320Z,24.90
2018-11-06T06:32:43.438Z,24.88
2018-11-06T06:35:15.617Z,24.96
2018-11-06T06:37:47.816Z,24.96
2018-11-06T06:40:20.174Z,24.93
2018-11-06T06:42:52.322Z,24.88
2018-11-06T06:45:24.615Z,24.89
2018-11-06T06:47:56.658Z,24.99
2018-11-06T06:50:29.044Z,24.99
2018-11-06T06:53:01.275Z,25.03
2018-11-06T06:55:33.411Z,24.98
2018-11-06T06:58:05.869Z,24.99
2018-11-06T07:00:38.091Z,24.98
2018-11-06T07:03:10.101Z,25.05
2018-11-06T07:05:42.338Z,25.01
2018-11-06T07:08:14.499Z,24.99
2018-11-06T07:10:46.756Z,25.07
2018-11-06T07:13:18.942Z,25.00
2018-11-06T07:15:51.232Z,25.04
2018-11-06T07:18:23.453Z,25.07
2018-11-06T07:20:55.497Z,25.07
2018-11-06T07:23:28.059Z,25.04
2018-11-06T07:26:00.226Z,25.10
2018-11-06T07:28:32.941Z,25.07
2018-11-06T07:31:05.107Z,25.02
2018-11-06T07:33:37.466Z,25.09
2018-11-06T07:36:09.593Z,25.12
2018-11-06T07:38:41.691Z,25.07
2018-11-06T07:41:13.688Z,25.18
2018-11-06T07:43:45.945Z,25.12
2018-11-06T07:46:17.979Z,25.12
2018-11-06T07:48:49.830Z,25.25
2018-11-06T07:51:22.018Z,25.13
2018-11-06T07:53:54.045Z,25.10
2018-11-06T07:56:26.028Z,25.08
2018-11-06T07:58:58.956Z,25.12
2018-11-06T08:01:31.062Z,25.13
2018-11-06T08:04:03.055Z,25.17
2018-11-06T08:06:35.270Z,25.31
2018-11-06T08:09:10.323Z,25.21
2018-11-06T08:11:42.373Z,25.39
2018-11-06T08:14:14.628Z,25.44
2018-11-06T08:16:46.662Z,25.39
2018-11-06T08:19:18.907Z,25.29
2018-11-06T08:21:50.807Z,25.25
2018-11-06T08:24:23.589Z,25.35
2018-11-06T08:26:55.339Z,25.35
2018-11-06T08:29:27.548Z,25.36
2018-11-06T08:32:00.427Z,25.29
2018-11-06T08:34:32.251Z,25.42
2018-11-06T08:37:04.319Z,25.39
2018-11-06T08:39:36.747Z,25.42
2018-11-06T08:42:08.860Z,25.43
2018-11-06T08:44:40.757Z,25.31
2018-11-06T08:47:13.028Z,25.44
2018-11-06T08:49:44.889Z,25.41
2018-11-06T08:52:16.834Z,25.56
2018-11-06T08:54:48.669Z,25.52
2018-11-06T08:57:20.900Z,25.38
2018-11-06T08:59:53.947Z,25.52
2018-11-06T09:02:26.234Z,25.42
2018-11-06T09:04:58.292Z,25.52
2018-11-06T09:07:30.430Z,25.49
2018-11-06T09:10:02.450Z,25.64
2018-11-06T09:12:34.588Z,25.56
2018-11-06T09:15:06.977Z,25.46
2018-11-06T09:17:39.797Z,25.60
2018-11-06T09:20:13.851Z,25.66
2018-11-06T09:22:45.980Z,25.60
2018-11-06T09:25:19.246Z,25.68
2018-11-06T09:27:51.394Z,25.51
2018-11-06T09:30:23.860Z,25.47
2018-11-06T09:32:55.928Z,25.64
2018-11-06T09:35:28.218Z,25.71
2018-11-06T09:38:00.219Z,25.62
2018-11-06T09:43:04.250Z,25.70
2018-11-06T09:45:36.357Z,25.68
2018-11-06T09:48:08.227Z,25.64
2018-11-06T09:50:40.895Z,25.75
2018-11-06T09:53:13.308Z,25.62
2018-11-06T09:55:45.337Z,25.50
2018-11-06T09:58:17.643Z,25.57
2018-11-06T10:00:50.355Z,25.56
2018-11-06T10:03:22.600Z,25.64
2018-11-06T10:05:54.955Z,25.84
2018-11-06T10:08:27.043Z,25.74
2018-11-06T10:10:59.111Z,25.71
2018-11-06T10:13:31.504Z,25.68
2018-11-06T10:16:03.623Z,25.69
2018-11-06T10:18:35.933Z,25.66
2018-11-06T10:21:08.335Z,25.68
2018-11-06T10:23:40.463Z,25.60
2018-11-06T10:26:12.688Z,25.55
2018-11-06T10:28:44.994Z,25.60
2018-11-06T10:31:17.774Z,25.60
2018-11-06T10:33:49.839Z,25.62
2018-11-06T10:36:22.025Z,25.56
2018-11-06T10:38:54.339Z,25.75
2018-11-06T10:41:26.469Z,25.62
2018-11-06T10:43:58.793Z,25.53
2018-11-06T10:46:30.682Z,25.68
2018-11-06T10:49:02.843Z,25.60
2018-11-06T10:51:36.475Z,25.64
2018-11-06T10:54:08.765Z,25.56
2018-11-06T10:56:40.600Z,25.54
2018-11-06T10:59:13.001Z,25.58
2018-11-06T11:01:50.077Z,25.54
2018-11-06T11:04:25.250Z,25.50
2018-11-06T11:06:57.133Z,25.48
2018-11-06T11:09:29.182Z,25.55
2018-11-06T11:12:01.378Z,25.46
2018-11-06T11:14:33.453Z,25.46
2018-11-06T11:17:05.498Z,25.46
2018-11-06T11:19:37.526Z,25.48
2018-11-06T11:22:09.609Z,25.45
2018-11-06T11:24:41.576Z,25.43
2018-11-06T11:27:13.704Z,25.42
2018-11-06T11:29:46.199Z,25.40
2018-11-06T11:32:18.831Z,25.38
2018-11-06T11:34:50.805Z,25.38
2018-11-06T11:37:23.117Z,25.35
2018-11-06T11:39:55.264Z,25.35
2018-11-06T11:42:27.663Z,25.35
2018-11-06T11:44:59.909Z,25.34
2018-11-06T11:47:32.070Z,25.34
2018-11-06T11:50:04.449Z,25.35
2018-11-06T11:52:37.017Z,25.35
2018-11-06T11:55:09.626Z,25.35
2018-11-06T11:57:41.927Z,25.36
2018-11-06T12:00:15.859Z,25.35
2018-11-06T12:02:48.172Z,25.34
2018-11-06T12:05:21.073Z,25.34
2018-11-06T12:07:53.220Z,25.32
2018-11-06T12:10:25.507Z,25.32
2018-11-06T12:12:57.567Z,25.33
2018-11-06T12:15:30.235Z,25.32
2018-11-06T12:18:02.355Z,25.31
2018-11-06T12:20:34.426Z,25.29
2018-11-06T12:23:06.838Z,25.29
2018-11-06T12:25:39.058Z,25.28
2018-11-06T12:28:11.053Z,25.32
2018-11-06T12:30:43.733Z,25.29
2018-11-06T12:33:16.548Z,25.28
2018-11-06T12:35:48.762Z,25.27
2018-11-06T12:38:20.730Z,25.32
2018-11-06T12:40:52.820Z,25.35
2018-11-06T12:43:24.801Z,25.35
2018-11-06T12:45:56.786Z,25.36
2018-11-06T12:48:28.847Z,25.32
2018-11-06T12:51:01.076Z,25.31
2018-11-06T12:53:33.061Z,25.29
2018-11-06T12:56:05.296Z,25.31
2018-11-06T12:58:37.336Z,25.29
2018-11-06T13:01:09.755Z,25.29
2018-11-06T13:03:42.570Z,25.29
2018-11-06T13:06:15.110Z,25.28
2018-11-06T13:08:52.337Z,25.29
2018-11-06T13:11:24.612Z,25.29
2018-11-06T13:13:56.395Z,25.28
2018-11-06T13:16:28.513Z,25.27
2018-11-06T13:19:00.382Z,25.28
2018-11-06T13:21:32.714Z,25.27
2018-11-06T13:24:04.392Z,25.28
2018-11-06T13:26:36.749Z,25.28
2018-11-06T13:29:09.165Z,25.27
2018-11-06T13:31:41.481Z,25.27
2018-11-06T13:34:13.938Z,25.27
2018-11-06T13:36:45.997Z,25.25
2018-11-06T13:39:17.928Z,25.24
2018-11-06T13:41:50.379Z,25.27
2018-11-06T13:44:22.486Z,25.27
2018-11-06T13:46:54.582Z,25.27
2018-11-06T13:49:27.189Z,25.25
2018-11-06T13:51:59.443Z,25.24
2018-11-06T13:54:31.330Z,25.23
2018-11-06T13:57:03.518Z,25.24
2018-11-06T13:59:35.528Z,25.25
2018-11-06T14:02:08.167Z,25.24
2018-11-06T14:04:42.188Z,25.25
2018-11-06T14:07:15.210Z,25.24
2018-11-06T14:09:47.854Z,25.23
2018-11-06T14:12:21.375Z,25.19
2018-11-06T14:14:54.838Z,25.17
2018-11-06T14:17:27.655Z,25.14
2018-11-06T14:20:00.589Z,25.20
2018-11-06T14:22:33.569Z,25.19
2018-11-06T14:25:07.281Z,25.20
2018-11-06T14:27:40.412Z,25.21
2018-11-06T14:30:19.481Z,25.20
2018-11-06T14:32:52.307Z,25.19
2018-11-06T14:35:25.569Z,25.20
2018-11-06T14:37:58.101Z,25.18
2018-11-06T14:40:31.522Z,25.20
2018-11-06T14:43:04.473Z,25.20
2018-11-06T14:45:37.204Z,25.18
2018-11-06T14:48:10.324Z,25.17
2018-11-06T14:50:42.912Z,25.20
2018-11-06T14:53:16.026Z,25.18
2018-11-06T14:55:48.613Z,25.16
2018-11-06T14:58:21.446Z,25.14
2018-11-06T15:00:54.309Z,25.15
2018-11-06T15:03:27.213Z,25.15
2018-11-06T15:06:00.840Z,25.11
2018-11-06T15:08:34.862Z,25.11
2018-11-06T15:11:07.443Z,25.12
2018-11-06T15:13:40.409Z,25.15
2018-11-06T15:16:13.308Z,25.15
2018-11-06T15:18:46.826Z,25.14
2018-11-06T15:21:19.467Z,25.10
2018-11-06T15:23:52.142Z,25.14
2018-11-06T15:26:24.541Z,25.09
2018-11-06T15:28:56.674Z,25.10
2018-11-06T15:31:28.834Z,25.13
2018-11-06T15:34:01.291Z,25.14
2018-11-06T15:36:34.218Z,25.15
2018-11-06T15:39:08.713Z,25.15
2018-11-06T15:41:41.961Z,25.14
2018-11-06T15:44:13.953Z,25.10
2018-11-06T15:46:46.095Z,25.10
2018-11-06T15:49:18.518Z,25.07
2018-11-06T15:51:50.684Z,25.04
2018-11-06T15:54:23.463Z,25.06
2018-11-06T15:56:55.242Z,25.06
2018-11-06T15:59:27.353Z,25.05
2018-11-06T16:01:59.497Z,25.00
2018-11-06T16:04:31.722Z,24.98
2018-11-06T16:07:04.351Z,24.96
2018-11-06T16:09:37.277Z,24.88
2018-11-06T16:12:09.628Z,24.89
2018-11-06T16:14:42.452Z,24.98
2018-11-06T16:17:15.551Z,24.91
2018-11-06T16:19:48.862Z,24.95
2018-11-06T16:22:21.944Z,25.00
2018-11-06T16:24:55.199Z,25.00
2018-11-06T16:27:28.538Z,24.98
2018-11-06T16:30:00.982Z,24.93
2018-11-06T16:32:33.257Z,24.85
2018-11-06T16:35:05.638Z,24.92
2018-11-06T16:37:38.139Z,24.97
2018-11-06T16:40:10.562Z,24.91
2018-11-06T16:42:43.270Z,24.98
2018-11-06T16:45:16.833Z,24.97
2018-11-06T16:47:49.886Z,24.95
2018-11-06T16:50:22.045Z,24.97
2018-11-06T16:52:54.093Z,25.00
2018-11-06T16:55:26.282Z,24.99
2018-11-06T16:57:58.257Z,24.90
2018-11-06T17:00:30.523Z,24.92
2018-11-06T17:03:02.862Z,24.91
2018-11-06T17:05:34.639Z,24.94
2018-11-06T17:08:07.171Z,24.96
2018-11-06T17:10:39.243Z,24.90
2018-11-06T17:13:11.033Z,24.94
2018-11-06T17:15:42.913Z,24.92
2018-11-06T17:18:15.083Z,24.98
2018-11-06T17:20:46.640Z,24.98
2018-11-06T17:23:18.707Z,24.97
2018-11-06T17:25:50.569Z,24.97
2018-11-06T17:28:23.051Z,24.96
2018-11-06T17:30:55.256Z,24.92
2018-11-06T17:33:27.541Z,24.92
2018-11-06T17:35:59.458Z,24.93
2018-11-06T17:38:32.313Z,24.92
2018-11-06T17:41:04.446Z,24.95
2018-11-06T17:43:36.634Z,24.95
2018-11-06T17:46:08.840Z,24.97
2018-11-06T17:48:40.923Z,24.92
2018-11-06T17:51:12.879Z,24.93
2018-11-06T17:53:44.959Z,24.92
2018-11-06T17:56:16.971Z,24.93
2018-11-06T17:58:49.091Z,24.92
2018-11-06T18:01:21.262Z,24.82
2018-11-06T18:03:53.276Z,24.84
2018-11-06T18:06:25.677Z,24.82
2018-11-06T18:08:58.337Z,24.77
2018-11-06T18:11:30.545Z,24.80
2018-11-06T18:14:02.421Z,24.83
2018-11-06T18:16:34.300Z,24.86
2018-11-06T18:19:06.230Z,24.83
2018-11-06T18:21:38.220Z,24.83
2018-11-06T18:24:10.385Z,24.80
2018-11-06T18:26:42.497Z,24.80
2018-11-06T18:29:14.467Z,24.84
2018-11-06T18:31:47.539Z,24.83
2018-11-06T18:34:19.576Z,24.76
2018-11-06T18:36:52.200Z,24.81
2018-11-06T18:39:25.104Z,24.81
2018-11-06T18:41:57.146Z,24.78
2018-11-06T18:44:29.355Z,24.81
2018-11-06T18:47:01.567Z,24.76
2018-11-06T18:49:33.573Z,24.75
2018-11-06T18:52:05.732Z,24.73
2018-11-06T18:54:37.875Z,24.73
2018-11-06T18:57:10.062Z,24.69
2018-11-06T18:59:42.195Z,24.60
2018-11-06T19:02:14.248Z,24.63
2018-11-06T19:04:46.047Z,24.67
2018-11-06T19:07:17.943Z,24.70
2018-11-06T19:09:50.847Z,24.71
2018-11-06T19:12:22.803Z,24.70
2018-11-06T19:14:55.219Z,24.67
2018-11-06T19:17:27.366Z,24.60
2018-11-06T19:19:59.512Z,24.61
2018-11-06T19:22:31.465Z,24.64
2018-11-06T19:25:03.453Z,24.70
2018-11-06T19:27:35.465Z,24.63
2018-11-06T19:30:09.013Z,24.62
2018-11-06T19:32:41.856Z,24.60
2018-11-06T19:35:14.209Z,24.56
2018-11-06T19:37:46.380Z,24.54
2018-11-06T19:40:19.363Z,24.55
2018-11-06T19:42:51.508Z,24.56
2018-11-06T19:45:23.668Z,24.57
2018-11-06T19:47:55.867Z,24.51
2018-11-06T19:50:27.742Z,24.51
2018-11-06T19:52:59.958Z,24.51
2018-11-06T19:55:31.894Z,24.50
2018-11-06T19:58:03.797Z,24.54
2018-11-06T20:00:35.935Z,24.53
2018-11-06T20:03:08.278Z,24.48
2018-11-06T20:05:40.151Z,24.47
2018-11-06T20:08:12.140Z,24.43
2018-11-06T20:10:44.589Z,24.45
2018-11-06T20:13:16.639Z,24.40
2018-11-06T20:15:48.780Z,24.38
2018-11-06T20:18:21.034Z,24.40
2018-11-06T20:20:53.027Z,24.40
2018-11-06T20:23:26.126Z,24.34
2018-11-06T20:25:58.747Z,24.38
2018-11-06T20:28:30.948Z,24.35
2018-11-06T20:31:02.979Z,24.43
2018-11-06T20:33:35.717Z,24.41
2018-11-06T20:36:07.721Z,24.35
2018-11-06T20:38:39.836Z,24.34
2018-11-06T20:41:11.974Z,24.34
2018-11-06T20:43:44.184Z,24.33
2018-11-06T20:46:16.047Z,24.27
2018-11-06T20:48:48.415Z,24.27
2018-11-06T20:51:20.663Z,24.29
2018-11-06T20:53:52.926Z,24.27
2018-11-06T20:56:24.585Z,24.23
2018-11-06T20:58:56.838Z,24.22
2018-11-06T21:01:28.486Z,24.22
2018-11-06T21:04:00.929Z,24.24
2018-11-06T21:06:35.206Z,24.20
2018-11-06T21:09:09.563Z,24.17
2018-11-06T21:11:42.236Z,24.10
2018-11-06T21:14:14.512Z,24.16
2018-11-06T21:16:46.419Z,24.16
2018-11-06T21:19:18.337Z,24.13
2018-11-06T21:21:50.193Z,24.13
2018-11-06T21:24:22.495Z,24.11
2018-11-06T21:26:54.567Z,24.14
2018-11-06T21:29:26.621Z,24.14
2018-11-06T21:31:58.609Z,24.09
2018-11-06T21:34:31.790Z,24.02
2018-11-06T21:37:03.933Z,24.04
2018-11-06T21:39:36.109Z,24.01
2018-11-06T21:42:08.159Z,24.04
2018-11-06T21:44:40.467Z,24.03
2018-11-06T21:47:12.514Z,24.07
2018-11-06T21:49:44.715Z,24.07
2018-11-06T21:52:16.839Z,24.03
2018-11-06T21:54:48.920Z,24.03
2018-11-06T21:57:20.985Z,24.05
2018-11-06T21:59:53.285Z,24.05
2018-11-06T22:02:25.316Z,24.09
2018-11-06T22:04:57.471Z,24.07
2018-11-06T22:07:29.469Z,24.04
2018-11-06T22:10:01.887Z,24.04
2018-11-06T22:12:34.178Z,23.99
2018-11-06T22:15:07.169Z,24.02
2018-11-06T22:17:39.384Z,23.98
2018-11-06T22:20:13.305Z,23.99
2018-11-06T22:22:45.826Z,24.03
2018-11-06T22:25:17.942Z,24.02
2018-11-06T22:27:49.809Z,23.99
2018-11-06T22:30:21.887Z,23.95
2018-11-06T22:32:53.814Z,23.90
2018-11-06T22:35:25.772Z,23.87
2018-11-06T22:37:57.685Z,23.87
2018-11-06T22:40:29.943Z,23.89
2018-11-06T22:43:02.334Z,23.88
2018-11-06T22:45:34.477Z,23.87
2018-11-06T22:48:06.577Z,23.86
2018-11-06T22:50:38.828Z,23.86
2018-11-06T22:53:10.985Z,23.86
2018-11-06T22:55:43.153Z,23.91
2018-11-06T22:58:14.974Z,23.89
2018-11-06T23:00:51.979Z,23.88
2018-11-06T23:03:23.971Z,23.86
2018-11-06T23:05:56.235Z,23.83
2018-11-06T23:08:29.167Z,23.85
2018-11-06T23:11:01.216Z,23.83
2018-11-06T23:13:33.741Z,23.83
2018-11-06T23:16:06.442Z,23.80
2018-11-06T23:18:38.999Z,23.81
2018-11-06T23:21:11.142Z,23.77
2018-11-06T23:23:42.945Z,23.71
2018-11-06T23:26:14.954Z,23.81
2018-11-06T23:28:47.044Z,23.77
2018-11-06T23:31:19.271Z,23.72
2018-11-06T23:33:51.337Z,23.78
2018-11-06T23:36:23.493Z,23.77
2018-11-06T23:38:55.636Z,23.70
2018-11-06T23:41:27.675Z,23.65
2018-11-06T23:44:00.129Z,23.66
2018-11-06T23:46:32.266Z,23.67
2018-11-06T23:49:04.450Z,23.65
2018-11-06T23:51:36.407Z,23.63
2018-11-06T23:54:08.587Z,23.60
2018-11-06T23:56:40.624Z,23.63
2018-11-06T23:59:12.606Z,23.63
